sensor_id;sensor_type;location;lat;lon;timestamp;pressure;altitude;pressure_sealevel;temperature;humidity
78717;BME280;68045;50.042;14.432;2023-06-26T00:03:00;98429.13;;;18.47;70.52
78717;BME280;68045;50.042;14.432;2023-06-26T00:07:01;98435.34;;;18.32;71.55
78717;BME280;68045;50.042;14.432;2023-06-26T00:11:02;98419.63;;;18.26;71.85
78717;BME280;68045;50.042;14.432;2023-06-26T00:15:03;98432.53;;;18.08;72.36
78717;BME280;68045;50.042;14.432;2023-06-26T00:19:04;98431.22;;;18.06;72.61
78717;BME280;68045;50.042;14.432;2023-06-26T00:23:05;98428.31;;;17.92;73.03
78717;BME280;68045;50.042;14.432;2023-06-26T00:27:08;98436.91;;;17.84;73.66
78717;BME280;68045;50.042;14.432;2023-06-26T00:31:08;98423.56;;;17.84;73.51
78717;BME280;68045;50.042;14.432;2023-06-26T00:35:09;98421.19;;;17.77;74.07
78717;BME280;68045;50.042;14.432;2023-06-26T00:39:11;98436.66;;;17.70;73.97
78717;BME280;68045;50.042;14.432;2023-06-26T00:43:12;98422.25;;;17.66;74.35
78717;BME280;68045;50.042;14.432;2023-06-26T00:47:15;98426.00;;;17.60;74.78
78717;BME280;68045;50.042;14.432;2023-06-26T00:51:16;98419.06;;;17.64;74.71
78717;BME280;68045;50.042;14.432;2023-06-26T00:55:17;98415.03;;;17.67;74.08
78717;BME280;68045;50.042;14.432;2023-06-26T00:59:18;98415.56;;;17.74;73.75
78717;BME280;68045;50.042;14.432;2023-06-26T01:03:21;98420.88;;;17.69;74.01
78717;BME280;68045;50.042;14.432;2023-06-26T01:07:23;98426.25;;;17.64;74.33
78717;BME280;68045;50.042;14.432;2023-06-26T01:11:24;98419.34;;;17.52;74.54
78717;BME280;68045;50.042;14.432;2023-06-26T01:15:27;98416.16;;;17.55;74.66
78717;BME280;68045;50.042;14.432;2023-06-26T01:19:30;98407.56;;;17.64;74.27
78717;BME280;68045;50.042;14.432;2023-06-26T01:23:38;98407.28;;;17.75;74.06
78717;BME280;68045;50.042;14.432;2023-06-26T01:27:39;98412.88;;;17.69;74.35
78717;BME280;68045;50.042;14.432;2023-06-26T01:31:41;98415.06;;;17.51;75.00
78717;BME280;68045;50.042;14.432;2023-06-26T01:35:43;98412.19;;;17.33;75.67
78717;BME280;68045;50.042;14.432;2023-06-26T01:39:44;98412.47;;;17.16;76.17
78717;BME280;68045;50.042;14.432;2023-06-26T01:48:16;98398.63;;;16.88;77.24
78717;BME280;68045;50.042;14.432;2023-06-26T01:52:20;98404.97;;;16.62;78.56
78717;BME280;68045;50.042;14.432;2023-06-26T01:56:23;98400.19;;;16.43;79.59
78717;BME280;68045;50.042;14.432;2023-06-26T02:00:26;98388.72;;;16.48;79.14
78717;BME280;68045;50.042;14.432;2023-06-26T02:04:27;98386.59;;;16.40;79.57
78717;BME280;68045;50.042;14.432;2023-06-26T02:08:28;98383.41;;;16.58;78.62
78717;BME280;68045;50.042;14.432;2023-06-26T02:12:31;98379.13;;;16.42;79.69
78717;BME280;68045;50.042;14.432;2023-06-26T02:16:32;98384.47;;;16.37;79.69
78717;BME280;68045;50.042;14.432;2023-06-26T02:20:33;98378.06;;;16.48;79.13
78717;BME280;68045;50.042;14.432;2023-06-26T02:24:36;98378.06;;;16.38;79.91
78717;BME280;68045;50.042;14.432;2023-06-26T02:28:38;98384.72;;;16.35;79.61
78717;BME280;68045;50.042;14.432;2023-06-26T02:32:39;98386.31;;;16.31;80.28
78717;BME280;68045;50.042;14.432;2023-06-26T02:36:40;98378.34;;;16.36;79.91
78717;BME280;68045;50.042;14.432;2023-06-26T02:40:40;98383.09;;;16.34;79.60
78717;BME280;68045;50.042;14.432;2023-06-26T02:44:41;98386.03;;;16.28;80.12
78717;BME280;68045;50.042;14.432;2023-06-26T02:48:42;98389.50;;;16.28;80.27
78717;BME280;68045;50.042;14.432;2023-06-26T02:52:43;98393.47;;;16.20;80.30
78717;BME280;68045;50.042;14.432;2023-06-26T02:56:44;98388.97;;;16.21;80.72
78717;BME280;68045;50.042;14.432;2023-06-26T03:00:45;98389.22;;;16.14;80.91
78717;BME280;68045;50.042;14.432;2023-06-26T03:04:50;98384.94;;;16.13;80.70
78717;BME280;68045;50.042;14.432;2023-06-26T03:08:53;98383.38;;;16.33;80.05
78717;BME280;68045;50.042;14.432;2023-06-26T03:12:54;98376.19;;;16.38;79.66
78717;BME280;68045;50.042;14.432;2023-06-26T03:16:55;98387.38;;;16.40;79.35
78717;BME280;68045;50.042;14.432;2023-06-26T03:21:00;98389.00;;;16.36;79.30
78717;BME280;68045;50.042;14.432;2023-06-26T03:25:02;98386.31;;;16.36;79.35
78717;BME280;68045;50.042;14.432;2023-06-26T03:29:04;98385.53;;;16.36;80.17
78717;BME280;68045;50.042;14.432;2023-06-26T03:33:06;98377.28;;;16.42;79.36
78717;BME280;68045;50.042;14.432;2023-06-26T03:37:07;98374.88;;;16.46;78.98
78717;BME280;68045;50.042;14.432;2023-06-26T03:41:08;98378.88;;;16.43;79.12
78717;BME280;68045;50.042;14.432;2023-06-26T03:45:09;98375.13;;;16.55;78.32
78717;BME280;68045;50.042;14.432;2023-06-26T03:49:10;98380.47;;;16.60;78.06
78717;BME280;68045;50.042;14.432;2023-06-26T03:53:11;98369.81;;;16.65;78.09
78717;BME280;68045;50.042;14.432;2023-06-26T03:57:15;98374.66;;;16.78;76.91
78717;BME280;68045;50.042;14.432;2023-06-26T04:01:16;98381.84;;;16.78;76.96
78717;BME280;68045;50.042;14.432;2023-06-26T04:05:18;98376.19;;;16.69;77.90
78717;BME280;68045;50.042;14.432;2023-06-26T04:09:19;98376.22;;;16.84;76.67
78717;BME280;68045;50.042;14.432;2023-06-26T04:13:20;98373.81;;;16.98;76.10
78717;BME280;68045;50.042;14.432;2023-06-26T04:17:21;98385.56;;;17.02;76.35
78717;BME280;68045;50.042;14.432;2023-06-26T04:21:23;98379.97;;;16.93;76.82
78717;BME280;68045;50.042;14.432;2023-06-26T04:25:27;98378.34;;;17.02;75.98
78717;BME280;68045;50.042;14.432;2023-06-26T04:29:29;98381.28;;;17.01;76.34
78717;BME280;68045;50.042;14.432;2023-06-26T04:33:31;98388.47;;;17.11;75.83
78717;BME280;68045;50.042;14.432;2023-06-26T04:37:32;98382.06;;;17.22;75.79
78717;BME280;68045;50.042;14.432;2023-06-26T04:41:33;98376.19;;;17.25;75.04
78717;BME280;68045;50.042;14.432;2023-06-26T04:45:34;98368.69;;;17.37;74.73
78717;BME280;68045;50.042;14.432;2023-06-26T04:49:35;98369.22;;;17.39;74.99
78717;BME280;68045;50.042;14.432;2023-06-26T04:53:36;98369.41;;;17.58;74.52
78717;BME280;68045;50.042;14.432;2023-06-26T04:57:37;98365.94;;;17.57;73.93
78717;BME280;68045;50.042;14.432;2023-06-26T05:01:37;98368.78;;;17.87;72.87
78717;BME280;68045;50.042;14.432;2023-06-26T05:05:40;98365.53;;;18.00;72.63
78717;BME280;68045;50.042;14.432;2023-06-26T05:09:40;98364.94;;;18.08;71.71
78717;BME280;68045;50.042;14.432;2023-06-26T05:13:41;98364.00;;;18.33;71.02
78717;BME280;68045;50.042;14.432;2023-06-26T05:17:42;98363.59;;;18.50;70.58
78717;BME280;68045;50.042;14.432;2023-06-26T05:21:44;98365.63;;;18.68;69.97
78717;BME280;68045;50.042;14.432;2023-06-26T05:25:45;98366.94;;;18.65;70.05
78717;BME280;68045;50.042;14.432;2023-06-26T05:29:46;98360.38;;;18.87;69.33
78717;BME280;68045;50.042;14.432;2023-06-26T05:33:48;98357.56;;;19.02;68.52
78717;BME280;68045;50.042;14.432;2023-06-26T05:37:50;98354.69;;;19.23;67.79
78717;BME280;68045;50.042;14.432;2023-06-26T05:41:51;98355.25;;;19.43;67.69
78717;BME280;68045;50.042;14.432;2023-06-26T05:45:52;98354.41;;;19.48;67.27
78717;BME280;68045;50.042;14.432;2023-06-26T05:49:53;98351.38;;;19.55;67.47
78717;BME280;68045;50.042;14.432;2023-06-26T05:53:54;98352.06;;;19.65;66.90
78717;BME280;68045;50.042;14.432;2023-06-26T05:57:57;98354.66;;;19.94;66.21
78717;BME280;68045;50.042;14.432;2023-06-26T06:01:59;98354.28;;;20.01;66.20
78717;BME280;68045;50.042;14.432;2023-06-26T06:06:00;98347.56;;;20.03;65.97
78717;BME280;68045;50.042;14.432;2023-06-26T06:10:03;98353.06;;;20.31;64.88
78717;BME280;68045;50.042;14.432;2023-06-26T06:14:04;98347.25;;;20.62;64.10
78717;BME280;68045;50.042;14.432;2023-06-26T06:18:05;98348.84;;;20.95;63.31
78717;BME280;68045;50.042;14.432;2023-06-26T06:22:06;98349.91;;;21.41;61.27
78717;BME280;68045;50.042;14.432;2023-06-26T06:26:07;98347.00;;;21.78;59.89
78717;BME280;68045;50.042;14.432;2023-06-26T06:30:08;98347.53;;;22.03;59.27
78717;BME280;68045;50.042;14.432;2023-06-26T06:34:09;98341.59;;;22.42;57.52
78717;BME280;68045;50.042;14.432;2023-06-26T06:38:10;98346.63;;;22.66;55.83
78717;BME280;68045;50.042;14.432;2023-06-26T06:42:11;98329.44;;;22.98;54.95
78717;BME280;68045;50.042;14.432;2023-06-26T06:46:12;98337.56;;;23.07;54.38
78717;BME280;68045;50.042;14.432;2023-06-26T06:50:13;98335.22;;;23.14;53.72
78717;BME280;68045;50.042;14.432;2023-06-26T06:54:16;98338.47;;;23.33;52.22
78717;BME280;68045;50.042;14.432;2023-06-26T06:58:17;98329.06;;;23.22;53.82
78717;BME280;68045;50.042;14.432;2023-06-26T07:02:21;98337.03;;;23.36;53.19
78717;BME280;68045;50.042;14.432;2023-06-26T07:06:22;98340.09;;;23.51;50.73
78717;BME280;68045;50.042;14.432;2023-06-26T07:10:23;98347.47;;;23.28;52.46
78717;BME280;68045;50.042;14.432;2023-06-26T07:14:24;98335.69;;;23.16;52.87
78717;BME280;68045;50.042;14.432;2023-06-26T07:18:25;98330.31;;;23.16;53.48
78717;BME280;68045;50.042;14.432;2023-06-26T07:22:26;98327.84;;;23.28;52.79
78717;BME280;68045;50.042;14.432;2023-06-26T07:26:27;98322.09;;;23.21;52.88
78717;BME280;68045;50.042;14.432;2023-06-26T07:30:28;98324.75;;;23.12;53.16
78717;BME280;68045;50.042;14.432;2023-06-26T07:34:29;98329.38;;;23.20;51.59
78717;BME280;68045;50.042;14.432;2023-06-26T07:38:29;98316.16;;;23.50;52.37
78717;BME280;68045;50.042;14.432;2023-06-26T07:42:30;98326.03;;;23.54;52.04
78717;BME280;68045;50.042;14.432;2023-06-26T07:46:31;98318.47;;;23.74;51.48
78717;BME280;68045;50.042;14.432;2023-06-26T07:50:32;98319.31;;;24.18;51.06
78717;BME280;68045;50.042;14.432;2023-06-26T07:54:33;98316.28;;;24.54;49.73
78717;BME280;68045;50.042;14.432;2023-06-26T07:58:34;98319.78;;;24.46;49.40
78717;BME280;68045;50.042;14.432;2023-06-26T08:02:35;98314.72;;;24.35;49.96
78717;BME280;68045;50.042;14.432;2023-06-26T08:06:36;98315.31;;;24.58;50.17
78717;BME280;68045;50.042;14.432;2023-06-26T08:10:40;98307.63;;;24.95;49.20
78717;BME280;68045;50.042;14.432;2023-06-26T08:14:41;98310.47;;;24.90;49.60
78717;BME280;68045;50.042;14.432;2023-06-26T08:18:42;98303.75;;;25.13;47.37
78717;BME280;68045;50.042;14.432;2023-06-26T08:22:43;98305.72;;;25.34;47.22
78717;BME280;68045;50.042;14.432;2023-06-26T08:26:46;98306.41;;;25.22;45.38
78717;BME280;68045;50.042;14.432;2023-06-26T08:30:47;98303.53;;;25.27;45.54
78717;BME280;68045;50.042;14.432;2023-06-26T08:34:48;98308.69;;;25.41;44.80
78717;BME280;68045;50.042;14.432;2023-06-26T08:38:48;98301.47;;;25.54;43.07
78717;BME280;68045;50.042;14.432;2023-06-26T08:42:49;98304.56;;;25.73;43.44
78717;BME280;68045;50.042;14.432;2023-06-26T08:46:53;98286.34;;;26.45;42.42
78717;BME280;68045;50.042;14.432;2023-06-26T08:50:55;98292.91;;;27.26;40.11
78717;BME280;68045;50.042;14.432;2023-06-26T08:54:58;98281.19;;;27.22;40.17
78717;BME280;68045;50.042;14.432;2023-06-26T08:58:59;98277.88;;;27.41;39.92
78717;BME280;68045;50.042;14.432;2023-06-26T09:03:03;98288.16;;;27.47;39.47
78717;BME280;68045;50.042;14.432;2023-06-26T09:07:04;98282.63;;;27.68;39.34
78717;BME280;68045;50.042;14.432;2023-06-26T09:11:05;98274.47;;;27.80;38.57
78717;BME280;68045;50.042;14.432;2023-06-26T09:15:06;98273.91;;;28.15;37.07
78717;BME280;68045;50.042;14.432;2023-06-26T09:19:13;98272.78;;;28.44;37.50
78717;BME280;68045;50.042;14.432;2023-06-26T09:23:15;98266.91;;;28.14;37.41
78717;BME280;68045;50.042;14.432;2023-06-26T09:27:17;98257.84;;;28.10;37.71
78717;BME280;68045;50.042;14.432;2023-06-26T09:31:18;98251.16;;;28.19;38.08
78717;BME280;68045;50.042;14.432;2023-06-26T09:35:21;98261.66;;;27.93;37.14
78717;BME280;68045;50.042;14.432;2023-06-26T09:39:22;98252.91;;;27.59;37.87
78717;BME280;68045;50.042;14.432;2023-06-26T09:43:23;98242.47;;;27.86;36.65
78717;BME280;68045;50.042;14.432;2023-06-26T09:47:24;98239.34;;;28.28;35.35
78717;BME280;68045;50.042;14.432;2023-06-26T09:51:25;98231.13;;;28.99;34.58
78717;BME280;68045;50.042;14.432;2023-06-26T09:55:26;98234.78;;;29.58;34.82
78717;BME280;68045;50.042;14.432;2023-06-26T09:59:27;98231.31;;;29.77;34.10
78717;BME280;68045;50.042;14.432;2023-06-26T10:03:28;98220.59;;;29.49;31.95
78717;BME280;68045;50.042;14.432;2023-06-26T10:07:29;98214.56;;;30.14;32.38
78717;BME280;68045;50.042;14.432;2023-06-26T10:11:51;98204.94;;;30.20;32.50
78717;BME280;68045;50.042;14.432;2023-06-26T10:15:54;98202.06;;;29.93;33.04
78717;BME280;68045;50.042;14.432;2023-06-26T10:19:58;98194.72;;;30.13;33.00
78717;BME280;68045;50.042;14.432;2023-06-26T10:24:04;98198.47;;;30.08;34.03
78717;BME280;68045;50.042;14.432;2023-06-26T10:28:08;98198.50;;;29.89;33.39
78717;BME280;68045;50.042;14.432;2023-06-26T10:32:12;98184.03;;;30.47;32.63
78717;BME280;68045;50.042;14.432;2023-06-26T10:36:15;98185.06;;;30.84;32.63
78717;BME280;68045;50.042;14.432;2023-06-26T10:40:40;98181.38;;;31.53;30.79
78717;BME280;68045;50.042;14.432;2023-06-26T10:44:43;98174.88;;;31.98;28.91
78717;BME280;68045;50.042;14.432;2023-06-26T10:49:04;98166.38;;;32.07;28.10
78717;BME280;68045;50.042;14.432;2023-06-26T10:57:25;98175.22;;;31.29;29.03
78717;BME280;68045;50.042;14.432;2023-06-26T11:01:26;98160.13;;;31.39;30.00
78717;BME280;68045;50.042;14.432;2023-06-26T11:05:29;98147.47;;;31.54;28.67
78717;BME280;68045;50.042;14.432;2023-06-26T11:10:00;98155.84;;;31.38;27.24
78717;BME280;68045;50.042;14.432;2023-06-26T11:14:02;98156.28;;;30.87;28.12
78717;BME280;68045;50.042;14.432;2023-06-26T11:18:03;98149.69;;;31.44;28.76
78717;BME280;68045;50.042;14.432;2023-06-26T11:22:04;98152.38;;;31.14;27.16
78717;BME280;68045;50.042;14.432;2023-06-26T11:26:18;98142.50;;;31.63;26.73
78717;BME280;68045;50.042;14.432;2023-06-26T11:30:25;98139.75;;;31.29;26.31
78717;BME280;68045;50.042;14.432;2023-06-26T11:34:29;98137.50;;;31.08;27.82
78717;BME280;68045;50.042;14.432;2023-06-26T11:38:37;98135.28;;;31.17;27.81
78717;BME280;68045;50.042;14.432;2023-06-26T11:42:38;98131.66;;;31.70;27.23
78717;BME280;68045;50.042;14.432;2023-06-26T11:46:39;98125.28;;;31.92;26.77
78717;BME280;68045;50.042;14.432;2023-06-26T11:50:40;98130.03;;;31.05;26.64
78717;BME280;68045;50.042;14.432;2023-06-26T11:54:41;98118.72;;;31.30;26.29
78717;BME280;68045;50.042;14.432;2023-06-26T11:59:02;98118.84;;;31.40;26.98
78717;BME280;68045;50.042;14.432;2023-06-26T12:03:04;98124.88;;;31.87;26.35
78717;BME280;68045;50.042;14.432;2023-06-26T12:07:06;98120.34;;;31.68;26.00
78717;BME280;68045;50.042;14.432;2023-06-26T12:11:10;98114.00;;;31.94;25.83
78717;BME280;68045;50.042;14.432;2023-06-26T12:15:14;98109.13;;;31.43;26.00
78717;BME280;68045;50.042;14.432;2023-06-26T12:19:16;98109.84;;;32.07;25.46
78717;BME280;68045;50.042;14.432;2023-06-26T12:23:17;98105.19;;;32.11;25.96
78717;BME280;68045;50.042;14.432;2023-06-26T12:27:18;98103.97;;;32.49;25.90
78717;BME280;68045;50.042;14.432;2023-06-26T12:31:22;98094.50;;;32.91;23.37
78717;BME280;68045;50.042;14.432;2023-06-26T12:35:23;98088.28;;;32.94;23.75
78717;BME280;68045;50.042;14.432;2023-06-26T12:39:25;98077.41;;;32.02;25.54
78717;BME280;68045;50.042;14.432;2023-06-26T12:43:28;98090.44;;;32.19;25.43
78717;BME280;68045;50.042;14.432;2023-06-26T12:47:29;98067.94;;;31.55;25.31
78717;BME280;68045;50.042;14.432;2023-06-26T12:51:31;98071.28;;;31.38;25.47
78717;BME280;68045;50.042;14.432;2023-06-26T12:55:32;98074.63;;;31.61;25.83
78717;BME280;68045;50.042;14.432;2023-06-26T12:59:35;98067.13;;;31.51;25.12
78717;BME280;68045;50.042;14.432;2023-06-26T13:03:37;98059.25;;;31.12;26.13
78717;BME280;68045;50.042;14.432;2023-06-26T13:07:38;98050.78;;;31.55;26.54
78717;BME280;68045;50.042;14.432;2023-06-26T13:11:38;98045.75;;;31.97;25.49
78717;BME280;68045;50.042;14.432;2023-06-26T13:15:39;98037.97;;;31.99;26.41
78717;BME280;68045;50.042;14.432;2023-06-26T13:19:40;98041.69;;;32.25;25.02
78717;BME280;68045;50.042;14.432;2023-06-26T13:23:41;98042.31;;;32.04;25.70
78717;BME280;68045;50.042;14.432;2023-06-26T13:27:42;98030.25;;;31.68;26.01
78717;BME280;68045;50.042;14.432;2023-06-26T13:31:43;98028.38;;;31.76;26.17
78717;BME280;68045;50.042;14.432;2023-06-26T13:35:44;98020.06;;;31.24;27.12
78717;BME280;68045;50.042;14.432;2023-06-26T13:39:44;98005.09;;;31.44;27.20
78717;BME280;68045;50.042;14.432;2023-06-26T13:43:50;98002.56;;;31.29;26.86
78717;BME280;68045;50.042;14.432;2023-06-26T13:47:51;97995.69;;;31.42;27.09
78717;BME280;68045;50.042;14.432;2023-06-26T13:51:52;97994.47;;;31.77;26.29
78717;BME280;68045;50.042;14.432;2023-06-26T13:55:53;97986.06;;;31.96;26.99
78717;BME280;68045;50.042;14.432;2023-06-26T13:59:53;97982.97;;;31.97;26.55
78717;BME280;68045;50.042;14.432;2023-06-26T14:03:54;97975.88;;;31.89;26.50
78717;BME280;68045;50.042;14.432;2023-06-26T14:07:55;97973.53;;;31.91;27.80
78717;BME280;68045;50.042;14.432;2023-06-26T14:11:56;97969.41;;;32.08;25.99
78717;BME280;68045;50.042;14.432;2023-06-26T14:15:57;97956.63;;;31.75;26.48
78717;BME280;68045;50.042;14.432;2023-06-26T14:19:58;97969.91;;;31.36;26.18
78717;BME280;68045;50.042;14.432;2023-06-26T14:23:59;97962.22;;;31.11;26.67
78717;BME280;68045;50.042;14.432;2023-06-26T14:28:00;97955.13;;;31.03;26.69
78717;BME280;68045;50.042;14.432;2023-06-26T14:32:02;97966.03;;;31.03;26.77
78717;BME280;68045;50.042;14.432;2023-06-26T14:36:03;97944.59;;;31.02;27.22
78717;BME280;68045;50.042;14.432;2023-06-26T14:40:05;97943.38;;;30.96;26.76
78717;BME280;68045;50.042;14.432;2023-06-26T14:44:06;97944.00;;;31.19;26.74
78717;BME280;68045;50.042;14.432;2023-06-26T14:48:10;97947.34;;;31.39;26.64
78717;BME280;68045;50.042;14.432;2023-06-26T14:52:11;97935.19;;;31.29;27.08
78717;BME280;68045;50.042;14.432;2023-06-26T14:56:12;97924.41;;;31.43;26.68
78717;BME280;68045;50.042;14.432;2023-06-26T15:00:13;97919.13;;;31.65;26.23
78717;BME280;68045;50.042;14.432;2023-06-26T15:04:14;97920.69;;;31.66;26.61
78717;BME280;68045;50.042;14.432;2023-06-26T15:08:15;97907.31;;;31.54;25.47
78717;BME280;68045;50.042;14.432;2023-06-26T15:12:16;97897.59;;;31.56;25.95
78717;BME280;68045;50.042;14.432;2023-06-26T15:16:17;97896.72;;;31.45;25.83
78717;BME280;68045;50.042;14.432;2023-06-26T15:20:19;97892.66;;;31.28;26.54
78717;BME280;68045;50.042;14.432;2023-06-26T15:24:19;97884.06;;;31.23;25.76
78717;BME280;68045;50.042;14.432;2023-06-26T15:28:20;97875.59;;;31.35;25.44
78717;BME280;68045;50.042;14.432;2023-06-26T15:32:21;97871.84;;;31.13;25.35
78717;BME280;68045;50.042;14.432;2023-06-26T15:36:23;97872.25;;;31.11;25.42
78717;BME280;68045;50.042;14.432;2023-06-26T15:40:24;97860.09;;;31.05;26.14
78717;BME280;68045;50.042;14.432;2023-06-26T15:44:24;97851.38;;;30.89;26.06
78717;BME280;68045;50.042;14.432;2023-06-26T15:48:25;97838.63;;;30.63;26.65
78717;BME280;68045;50.042;14.432;2023-06-26T15:52:28;97850.09;;;30.46;26.49
78717;BME280;68045;50.042;14.432;2023-06-26T15:56:29;97842.63;;;30.39;26.83
78717;BME280;68045;50.042;14.432;2023-06-26T16:00:29;97835.78;;;30.52;26.76
78717;BME280;68045;50.042;14.432;2023-06-26T16:04:30;97839.09;;;30.69;26.56
78717;BME280;68045;50.042;14.432;2023-06-26T16:08:32;97826.16;;;30.62;26.83
78717;BME280;68045;50.042;14.432;2023-06-26T16:12:33;97814.41;;;30.58;26.36
78717;BME280;68045;50.042;14.432;2023-06-26T16:16:34;97835.66;;;30.42;26.32
78717;BME280;68045;50.042;14.432;2023-06-26T16:20:35;97819.63;;;30.36;26.91
78717;BME280;68045;50.042;14.432;2023-06-26T16:24:36;97807.56;;;30.38;27.52
78717;BME280;68045;50.042;14.432;2023-06-26T16:28:37;97804.13;;;30.41;26.40
78717;BME280;68045;50.042;14.432;2023-06-26T16:32:38;97803.38;;;30.44;26.74
78717;BME280;68045;50.042;14.432;2023-06-26T16:36:39;97798.69;;;30.41;26.66
78717;BME280;68045;50.042;14.432;2023-06-26T16:40:40;97788.44;;;30.30;26.58
78717;BME280;68045;50.042;14.432;2023-06-26T16:44:41;97804.38;;;30.28;26.39
78717;BME280;68045;50.042;14.432;2023-06-26T16:48:43;97793.16;;;30.33;27.05
78717;BME280;68045;50.042;14.432;2023-06-26T16:52:44;97781.50;;;30.36;27.13
78717;BME280;68045;50.042;14.432;2023-06-26T16:56:45;97787.00;;;30.40;27.51
78717;BME280;68045;50.042;14.432;2023-06-26T17:00:46;97775.63;;;30.31;27.93
78717;BME280;68045;50.042;14.432;2023-06-26T17:04:48;97774.66;;;30.16;27.91
78717;BME280;68045;50.042;14.432;2023-06-26T17:08:48;97767.53;;;30.08;28.29
78717;BME280;68045;50.042;14.432;2023-06-26T17:12:49;97768.69;;;30.07;28.41
78717;BME280;68045;50.042;14.432;2023-06-26T17:16:50;97762.69;;;29.94;28.24
78717;BME280;68045;50.042;14.432;2023-06-26T17:20:52;97763.84;;;29.93;28.41
78717;BME280;68045;50.042;14.432;2023-06-26T17:24:53;97771.22;;;29.89;28.00
78717;BME280;68045;50.042;14.432;2023-06-26T17:28:59;97760.94;;;29.79;28.29
78717;BME280;68045;50.042;14.432;2023-06-26T17:33:00;97772.91;;;29.71;28.61
78717;BME280;68045;50.042;14.432;2023-06-26T17:37:04;97764.75;;;29.71;28.85
78717;BME280;68045;50.042;14.432;2023-06-26T17:41:05;97755.91;;;29.51;29.39
78717;BME280;68045;50.042;14.432;2023-06-26T17:45:06;97763.63;;;29.49;29.74
78717;BME280;68045;50.042;14.432;2023-06-26T17:49:07;97757.13;;;29.53;29.58
78717;BME280;68045;50.042;14.432;2023-06-26T17:53:08;97760.44;;;29.43;29.93
78717;BME280;68045;50.042;14.432;2023-06-26T17:57:09;97767.78;;;29.39;30.27
78717;BME280;68045;50.042;14.432;2023-06-26T18:01:10;97761.41;;;29.32;30.73
78717;BME280;68045;50.042;14.432;2023-06-26T18:05:11;97763.91;;;29.17;31.20
78717;BME280;68045;50.042;14.432;2023-06-26T18:09:12;97760.63;;;29.05;31.40
78717;BME280;68045;50.042;14.432;2023-06-26T18:13:13;97752.41;;;29.01;31.73
78717;BME280;68045;50.042;14.432;2023-06-26T18:17:14;97757.97;;;28.85;32.00
78717;BME280;68045;50.042;14.432;2023-06-26T18:21:16;97750.97;;;28.84;31.74
78717;BME280;68045;50.042;14.432;2023-06-26T18:25:16;97770.34;;;28.83;31.87
78717;BME280;68045;50.042;14.432;2023-06-26T18:29:17;97753.97;;;28.79;31.67
78717;BME280;68045;50.042;14.432;2023-06-26T18:33:18;97766.41;;;28.80;31.84
78717;BME280;68045;50.042;14.432;2023-06-26T18:37:20;97777.03;;;28.66;32.53
78717;BME280;68045;50.042;14.432;2023-06-26T18:41:21;97823.16;;;28.43;33.54
78717;BME280;68045;50.042;14.432;2023-06-26T18:45:22;97852.03;;;28.16;35.58
78717;BME280;68045;50.042;14.432;2023-06-26T18:49:23;97852.00;;;27.97;37.06
78717;BME280;68045;50.042;14.432;2023-06-26T18:53:24;97848.03;;;27.75;37.98
78717;BME280;68045;50.042;14.432;2023-06-26T18:57:25;97863.00;;;27.53;38.75
78717;BME280;68045;50.042;14.432;2023-06-26T19:01:27;97847.25;;;27.27;40.07
78717;BME280;68045;50.042;14.432;2023-06-26T19:05:28;97885.56;;;27.09;40.98
78717;BME280;68045;50.042;14.432;2023-06-26T19:09:30;97899.28;;;26.89;41.56
78717;BME280;68045;50.042;14.432;2023-06-26T19:13:31;97915.03;;;26.71;41.90
78717;BME280;68045;50.042;14.432;2023-06-26T19:17:32;97922.09;;;26.60;42.94
78717;BME280;68045;50.042;14.432;2023-06-26T19:21:33;97930.81;;;26.41;43.39
78717;BME280;68045;50.042;14.432;2023-06-26T19:25:34;97944.38;;;26.16;44.13
78717;BME280;68045;50.042;14.432;2023-06-26T19:29:35;97959.47;;;26.05;44.83
78717;BME280;68045;50.042;14.432;2023-06-26T19:33:36;97972.69;;;25.94;45.56
78717;BME280;68045;50.042;14.432;2023-06-26T19:37:37;98003.88;;;25.80;46.47
78717;BME280;68045;50.042;14.432;2023-06-26T19:41:38;98020.06;;;25.67;47.15
78717;BME280;68045;50.042;14.432;2023-06-26T19:45:39;98031.28;;;25.57;48.64
78717;BME280;68045;50.042;14.432;2023-06-26T19:49:40;98055.25;;;25.46;49.63
78717;BME280;68045;50.042;14.432;2023-06-26T19:53:40;98059.56;;;25.27;52.21
78717;BME280;68045;50.042;14.432;2023-06-26T19:57:42;98054.53;;;24.96;53.25
78717;BME280;68045;50.042;14.432;2023-06-26T20:01:43;98052.63;;;24.75;53.49
78717;BME280;68045;50.042;14.432;2023-06-26T20:05:45;98075.81;;;24.47;53.71
78717;BME280;68045;50.042;14.432;2023-06-26T20:09:47;98079.47;;;24.42;54.24
78717;BME280;68045;50.042;14.432;2023-06-26T20:13:48;98107.44;;;24.29;56.75
78717;BME280;68045;50.042;14.432;2023-06-26T20:17:49;98125.41;;;24.16;58.27
78717;BME280;68045;50.042;14.432;2023-06-26T20:21:49;98113.16;;;23.63;59.78
78717;BME280;68045;50.042;14.432;2023-06-26T20:25:50;98113.31;;;23.67;60.02
78717;BME280;68045;50.042;14.432;2023-06-26T20:29:51;98117.88;;;23.57;60.27
78717;BME280;68045;50.042;14.432;2023-06-26T20:33:53;98103.28;;;23.58;59.97
78717;BME280;68045;50.042;14.432;2023-06-26T20:37:55;98097.28;;;23.53;60.66
78717;BME280;68045;50.042;14.432;2023-06-26T20:41:56;98077.63;;;23.44;62.31
78717;BME280;68045;50.042;14.432;2023-06-26T20:45:57;98084.16;;;23.34;62.78
78717;BME280;68045;50.042;14.432;2023-06-26T20:49:59;98088.75;;;23.08;63.40
78717;BME280;68045;50.042;14.432;2023-06-26T20:54:00;98080.94;;;22.97;64.11
78717;BME280;68045;50.042;14.432;2023-06-26T20:58:01;98107.25;;;23.00;64.13
78717;BME280;68045;50.042;14.432;2023-06-26T21:02:02;98115.50;;;23.39;63.21
78717;BME280;68045;50.042;14.432;2023-06-26T21:06:03;98132.47;;;23.56;63.29
78717;BME280;68045;50.042;14.432;2023-06-26T21:10:05;98127.06;;;23.30;61.78
78717;BME280;68045;50.042;14.432;2023-06-26T21:14:06;98126.44;;;23.16;62.71